createdAt,value
2023-04-24T00:01:27.886Z,80.08
2023-04-24T00:06:35.937Z,80.60
2023-04-24T00:11:41.426Z,80.23
2023-04-24T00:16:46.970Z,80.31
2023-04-24T00:21:53.453Z,80.38
2023-04-24T00:26:58.948Z,80.02
2023-04-24T00:32:05.036Z,80.23
2023-04-24T00:37:12.661Z,80.55
2023-04-24T00:42:18.170Z,80.83
2023-04-24T00:47:24.378Z,80.85
2023-04-24T00:52:31.622Z,81.01
2023-04-24T00:57:37.173Z,81.08
2023-04-24T01:02:45.407Z,81.39
2023-04-24T01:07:51.394Z,81.32
2023-04-24T01:12:57.607Z,81.53
2023-04-24T01:18:03.524Z,81.56
2023-04-24T01:23:10.651Z,81.71
2023-04-24T01:28:16.482Z,81.72
2023-04-24T01:33:23.655Z,81.76
2023-04-24T01:38:29.410Z,81.83
2023-04-24T01:43:35.032Z,81.85
2023-04-24T01:48:40.590Z,82.02
2023-04-24T01:53:46.173Z,81.91
2023-04-24T01:58:53.894Z,82.19
2023-04-24T02:03:59.467Z,82.23
2023-04-24T02:09:05.399Z,82.34
2023-04-24T02:14:11.128Z,82.48
2023-04-24T02:19:18.325Z,82.57
2023-04-24T02:24:23.885Z,82.46
2023-04-24T02:29:29.388Z,82.67
2023-04-24T02:34:34.932Z,82.69
2023-04-24T02:39:40.483Z,82.76
2023-04-24T02:44:46.158Z,82.80
2023-04-24T02:49:51.601Z,82.85
2023-04-24T02:54:57.000Z,82.74
2023-04-24T03:00:02.583Z,82.60
2023-04-24T03:05:08.630Z,82.72
2023-04-24T03:10:14.173Z,82.82
2023-04-24T03:15:20.301Z,83.13
2023-04-24T03:20:26.848Z,83.24
2023-04-24T03:25:33.214Z,83.47
2023-04-24T03:30:39.447Z,83.79
2023-04-24T03:35:46.110Z,84.04
2023-04-24T03:40:51.714Z,84.39
2023-04-24T03:46:01.791Z,84.64
2023-04-24T03:51:09.034Z,84.75
2023-04-24T03:56:16.030Z,84.91
2023-04-24T04:01:21.894Z,85.08
2023-04-24T04:06:29.742Z,85.37
2023-04-24T04:11:36.939Z,85.80
2023-04-24T04:16:43.312Z,86.02
2023-04-24T04:21:50.758Z,86.15
2023-04-24T04:26:59.290Z,86.45
2023-04-24T04:32:09.512Z,86.47
2023-04-24T04:37:15.597Z,86.79
2023-04-24T04:42:29.418Z,86.97
2023-04-24T04:47:35.213Z,87.36
2023-04-24T04:52:41.327Z,87.36
2023-04-24T04:57:49.002Z,87.68
2023-04-24T05:02:56.334Z,88.65
2023-04-24T05:08:02.046Z,87.99
2023-04-24T05:13:07.728Z,87.08
2023-04-24T05:18:14.258Z,86.54
2023-04-24T05:23:19.997Z,86.22
2023-04-24T05:28:28.921Z,85.94
2023-04-24T05:33:36.174Z,85.59
2023-04-24T05:38:42.273Z,85.17
2023-04-24T05:43:47.973Z,85.22
2023-04-24T05:48:53.557Z,85.02
2023-04-24T05:53:59.194Z,83.98
2023-04-24T05:59:04.777Z,83.51
2023-04-24T06:04:10.545Z,83.37
2023-04-24T06:09:17.992Z,82.96
2023-04-24T06:14:23.752Z,82.59
2023-04-24T06:19:43.594Z,82.14
2023-04-24T06:24:49.747Z,81.37
2023-04-24T06:29:56.508Z,82.35
2023-04-24T06:35:02.324Z,82.07
2023-04-24T06:40:08.933Z,81.27
2023-04-24T06:45:14.426Z,81.41
2023-04-24T06:50:20.042Z,81.97
2023-04-24T06:55:25.707Z,80.27
2023-04-24T07:00:31.369Z,79.75
2023-04-24T07:05:38.194Z,78.76
2023-04-24T07:10:43.879Z,79.07
2023-04-24T07:15:51.309Z,77.99
2023-04-24T07:20:57.517Z,76.70
2023-04-24T07:26:03.453Z,76.40
2023-04-24T07:31:10.462Z,76.05
2023-04-24T07:36:20.102Z,75.61
2023-04-24T07:41:26.307Z,75.93
2023-04-24T07:46:32.986Z,75.51
2023-04-24T07:51:39.526Z,76.42
2023-04-24T07:56:46.223Z,75.61
2023-04-24T08:01:51.931Z,75.40
2023-04-24T08:06:57.487Z,74.52
2023-04-24T08:12:03.670Z,74.27
2023-04-24T08:17:09.249Z,74.71
2023-04-24T08:22:14.898Z,74.86
2023-04-24T08:27:20.412Z,74.14
2023-04-24T08:32:26.368Z,73.26
2023-04-24T08:37:32.063Z,72.56
2023-04-24T08:42:39.308Z,72.44
2023-04-24T08:47:46.390Z,71.38
2023-04-24T08:52:55.279Z,70.81
2023-04-24T08:58:03.220Z,72.54
2023-04-24T09:03:09.082Z,70.98
2023-04-24T09:08:16.417Z,70.17
2023-04-24T09:13:23.068Z,70.81
2023-04-24T09:18:28.981Z,69.58
2023-04-24T09:23:35.167Z,68.79
2023-04-24T09:28:42.234Z,68.19
2023-04-24T09:34:08.281Z,68.41
2023-04-24T09:39:20.906Z,67.89
2023-04-24T09:44:29.041Z,66.67
2023-04-24T09:49:36.154Z,66.67
2023-04-24T09:54:42.512Z,66.58
2023-04-24T09:59:48.958Z,65.96
2023-04-24T10:05:01.079Z,64.51
2023-04-24T10:10:08.558Z,66.99
2023-04-24T10:15:15.652Z,65.37
2023-04-24T10:20:27.429Z,63.11
2023-04-24T10:25:35.125Z,63.02
2023-04-24T10:30:43.327Z,61.60
2023-04-24T10:35:51.863Z,60.67
2023-04-24T10:41:19.280Z,60.53
2023-04-24T10:46:26.452Z,60.80
2023-04-24T10:51:49.819Z,59.44
2023-04-24T10:56:58.263Z,60.39
2023-04-24T11:02:03.687Z,59.38
2023-04-24T11:07:10.895Z,59.76
2023-04-24T11:12:16.385Z,58.90
2023-04-24T11:17:38.656Z,58.54
2023-04-24T11:22:44.398Z,58.75
2023-04-24T11:27:51.075Z,57.98
2023-04-24T11:32:56.861Z,57.80
2023-04-24T11:38:22.773Z,57.15
2023-04-24T11:43:12.453Z,56.39
2023-04-24T11:48:23.448Z,56.81
2023-04-24T11:53:29.601Z,55.30
2023-04-24T11:58:40.312Z,55.65
2023-04-24T12:03:52.591Z,54.90
2023-04-24T12:09:04.975Z,54.89
2023-04-24T12:14:14.179Z,53.28
2023-04-24T12:19:26.414Z,53.26
2023-04-24T12:24:32.629Z,53.41
2023-04-24T12:29:38.270Z,54.03
2023-04-24T12:34:45.612Z,53.51
2023-04-24T12:40:09.451Z,53.91
2023-04-24T12:45:16.196Z,53.82
2023-04-24T12:50:21.887Z,53.87
2023-04-24T12:55:28.626Z,53.68
2023-04-24T13:00:35.008Z,53.58
2023-04-24T13:05:40.879Z,53.03
2023-04-24T13:10:46.745Z,52.34
2023-04-24T13:16:19.045Z,52.74
2023-04-24T13:21:24.635Z,52.34
2023-04-24T13:26:30.086Z,50.66
2023-04-24T13:31:35.870Z,48.91
2023-04-24T13:36:42.001Z,48.91
2023-04-24T13:41:49.279Z,48.20
2023-04-24T13:46:57.987Z,47.02
2023-04-24T13:52:04.545Z,46.87
2023-04-24T13:57:10.047Z,46.26
2023-04-24T14:02:15.912Z,45.66
2023-04-24T14:07:21.831Z,45.51
2023-04-24T14:12:28.167Z,46.01
2023-04-24T14:17:33.780Z,46.14
2023-04-24T14:22:39.237Z,45.49
2023-04-24T14:27:44.879Z,44.45
2023-04-24T14:32:51.188Z,45.05
2023-04-24T14:37:57.225Z,47.45
2023-04-24T14:43:02.800Z,48.04
2023-04-24T14:48:09.231Z,49.21
2023-04-24T14:53:15.290Z,50.44
2023-04-24T14:58:20.888Z,51.51
2023-04-24T15:03:28.246Z,52.29
2023-04-24T15:08:34.072Z,53.06
2023-04-24T15:13:40.976Z,54.01
2023-04-24T15:18:46.569Z,54.50
2023-04-24T15:23:52.166Z,54.09
2023-04-24T15:28:57.713Z,54.46
2023-04-24T15:34:03.754Z,55.32
2023-04-24T15:39:11.022Z,55.43
2023-04-24T15:44:16.467Z,55.77
2023-04-24T15:49:22.211Z,56.40
2023-04-24T15:54:27.730Z,56.49
2023-04-24T15:59:34.464Z,56.46
2023-04-24T16:04:40.097Z,56.90
2023-04-24T16:09:46.117Z,56.85
2023-04-24T16:14:51.795Z,57.05
2023-04-24T16:19:57.242Z,57.37
2023-04-24T16:25:03.043Z,56.81
2023-04-24T16:30:09.878Z,57.37
2023-04-24T16:35:15.384Z,57.13
2023-04-24T16:40:21.084Z,57.34
2023-04-24T16:45:26.703Z,57.21
2023-04-24T16:50:32.312Z,58.19
2023-04-24T16:55:37.748Z,57.49
2023-04-24T17:00:43.464Z,58.05
2023-04-24T17:05:49.012Z,57.52
2023-04-24T17:10:54.586Z,56.84
2023-04-24T17:16:00.204Z,55.89
2023-04-24T17:21:05.835Z,55.96
2023-04-24T17:26:12.643Z,55.55
2023-04-24T17:31:18.261Z,55.00
2023-04-24T17:36:23.835Z,54.98
2023-04-24T17:41:29.331Z,54.32
2023-04-24T17:46:35.654Z,54.22
2023-04-24T17:51:41.438Z,54.34
2023-04-24T17:56:47.444Z,54.52
2023-04-24T18:01:53.604Z,54.38
2023-04-24T18:06:59.280Z,54.49
2023-04-24T18:12:05.590Z,54.53
2023-04-24T18:17:11.583Z,54.35
2023-04-24T18:22:17.151Z,54.31
2023-04-24T18:27:24.333Z,54.19
2023-04-24T18:32:30.220Z,54.27
2023-04-24T18:37:35.849Z,54.34
2023-04-24T18:42:41.704Z,54.50
2023-04-24T18:47:47.320Z,54.44
2023-04-24T18:52:53.058Z,54.67
2023-04-24T18:57:58.503Z,55.53
2023-04-24T19:03:04.339Z,56.26
2023-04-24T19:08:10.201Z,56.18
2023-04-24T19:13:16.159Z,57.00
2023-04-24T19:18:21.679Z,55.91
2023-04-24T19:23:30.659Z,55.90
2023-04-24T19:28:37.894Z,55.84
2023-04-24T19:33:43.489Z,56.06
2023-04-24T19:38:51.055Z,56.20
2023-04-24T19:43:56.800Z,56.37
2023-04-24T19:49:02.384Z,56.48
2023-04-24T19:54:07.879Z,56.68
2023-04-24T19:59:13.312Z,57.00
2023-04-24T20:04:20.474Z,57.53
2023-04-24T20:09:26.052Z,58.05
2023-04-24T20:14:31.805Z,58.03
2023-04-24T20:19:37.884Z,58.62
2023-04-24T20:24:44.032Z,58.86
2023-04-24T20:29:49.536Z,59.20
2023-04-24T20:34:55.372Z,60.02
2023-04-24T20:40:02.461Z,60.52
2023-04-24T20:45:09.048Z,60.68
2023-04-24T20:50:14.566Z,60.81
2023-04-24T20:55:20.111Z,61.88
2023-04-24T21:00:27.238Z,60.61
2023-04-24T21:05:33.620Z,60.64
2023-04-24T21:10:39.061Z,61.09
2023-04-24T21:15:44.676Z,60.84
2023-04-24T21:20:51.860Z,61.37
2023-04-24T21:25:58.604Z,61.18
2023-04-24T21:31:04.613Z,61.29
2023-04-24T21:36:10.807Z,61.55
2023-04-24T21:41:16.370Z,61.86
2023-04-24T21:46:21.976Z,62.10
2023-04-24T21:51:28.518Z,62.83
2023-04-24T21:56:34.527Z,62.77
2023-04-24T22:01:40.247Z,62.94
2023-04-24T22:06:45.861Z,62.94
2023-04-24T22:11:51.710Z,63.45
2023-04-24T22:16:57.925Z,63.26
2023-04-24T22:22:03.583Z,63.54
2023-04-24T22:27:09.118Z,63.52
2023-04-24T22:32:14.610Z,63.70
2023-04-24T22:37:20.035Z,63.61
2023-04-24T22:42:26.153Z,63.68
2023-04-24T22:47:32.124Z,63.37
2023-04-24T22:52:38.269Z,63.70
2023-04-24T22:57:44.238Z,63.48
2023-04-24T23:02:50.069Z,63.41
2023-04-24T23:07:55.836Z,63.33
2023-04-24T23:13:01.310Z,63.22
2023-04-24T23:18:07.023Z,63.18
2023-04-24T23:23:12.869Z,62.98
2023-04-24T23:28:19.363Z,62.85
2023-04-24T23:33:24.848Z,63.21
2023-04-24T23:38:39.606Z,63.05
2023-04-24T23:43:38.781Z,63.24
2023-04-24T23:48:44.285Z,63.36
2023-04-24T23:53:50.217Z,63.58
2023-04-24T23:58:56.328Z,63.54
